sensor_id;sensor_type;location;lat;lon;timestamp;temperature;humidity
45843;DHT22;31563;51.744;8.252;2024-03-29T00:02:14;18.50;49.00
45843;DHT22;31563;51.744;8.252;2024-03-29T00:04:41;18.50;48.90
45843;DHT22;31563;51.744;8.252;2024-03-29T00:07:07;18.50;49.00
45843;DHT22;31563;51.744;8.252;2024-03-29T00:09:33;18.50;49.10
45843;DHT22;31563;51.744;8.252;2024-03-29T00:11:59;18.50;49.00
45843;DHT22;31563;51.744;8.252;2024-03-29T00:14:25;18.50;49.10
45843;DHT22;31563;51.744;8.252;2024-03-29T00:16:51;18.40;49.10
45843;DHT22;31563;51.744;8.252;2024-03-29T00:19:19;18.40;49.10
45843;DHT22;31563;51.744;8.252;2024-03-29T00:21:45;18.40;49.20
45843;DHT22;31563;51.744;8.252;2024-03-29T00:24:12;18.40;49.10
45843;DHT22;31563;51.744;8.252;2024-03-29T00:26:38;18.40;49.20
45843;DHT22;31563;51.744;8.252;2024-03-29T00:29:04;18.30;49.20
45843;DHT22;31563;51.744;8.252;2024-03-29T00:31:30;18.30;49.30
45843;DHT22;31563;51.744;8.252;2024-03-29T00:33:56;18.30;49.40
45843;DHT22;31563;51.744;8.252;2024-03-29T00:36:24;18.30;50.10
45843;DHT22;31563;51.744;8.252;2024-03-29T00:38:50;18.30;49.40
45843;DHT22;31563;51.744;8.252;2024-03-29T00:41:16;18.20;49.40
45843;DHT22;31563;51.744;8.252;2024-03-29T00:43:42;18.20;49.50
45843;DHT22;31563;51.744;8.252;2024-03-29T00:46:08;18.20;49.60
45843;DHT22;31563;51.744;8.252;2024-03-29T00:48:34;18.20;50.30
45843;DHT22;31563;51.744;8.252;2024-03-29T00:51:00;18.20;49.70
45843;DHT22;31563;51.744;8.252;2024-03-29T00:53:28;18.10;49.70
45843;DHT22;31563;51.744;8.252;2024-03-29T00:55:54;18.10;49.80
45843;DHT22;31563;51.744;8.252;2024-03-29T00:58:20;18.20;49.70
45843;DHT22;31563;51.744;8.252;2024-03-29T01:00:46;18.20;49.60
45843;DHT22;31563;51.744;8.252;2024-03-29T01:03:12;18.20;49.60
45843;DHT22;31563;51.744;8.252;2024-03-29T01:05:38;18.20;50.30
45843;DHT22;31563;51.744;8.252;2024-03-29T01:08:05;18.20;49.60
45843;DHT22;31563;51.744;8.252;2024-03-29T01:10:33;18.10;50.30
45843;DHT22;31563;51.744;8.252;2024-03-29T01:12:59;18.10;49.70
45843;DHT22;31563;51.744;8.252;2024-03-29T01:15:25;18.10;49.70
45843;DHT22;31563;51.744;8.252;2024-03-29T01:17:51;18.10;50.40
45843;DHT22;31563;51.744;8.252;2024-03-29T01:20:17;18.10;49.80
45843;DHT22;31563;51.744;8.252;2024-03-29T01:22:43;18.10;49.90
45843;DHT22;31563;51.744;8.252;2024-03-29T01:25:09;18.10;49.90
45843;DHT22;31563;51.744;8.252;2024-03-29T01:27:36;18.10;49.90
45843;DHT22;31563;51.744;8.252;2024-03-29T01:30:03;18.10;49.90
45843;DHT22;31563;51.744;8.252;2024-03-29T01:32:30;18.00;49.90
45843;DHT22;31563;51.744;8.252;2024-03-29T01:34:56;18.00;49.90
45843;DHT22;31563;51.744;8.252;2024-03-29T01:37:22;18.00;50.00
45843;DHT22;31563;51.744;8.252;2024-03-29T01:39:48;18.00;50.00
45843;DHT22;31563;51.744;8.252;2024-03-29T01:42:14;18.00;50.00
45843;DHT22;31563;51.744;8.252;2024-03-29T01:44:41;17.90;50.00
45843;DHT22;31563;51.744;8.252;2024-03-29T01:47:09;17.90;50.00
45843;DHT22;31563;51.744;8.252;2024-03-29T01:49:36;17.90;50.00
45843;DHT22;31563;51.744;8.252;2024-03-29T01:52:04;17.90;50.70
45843;DHT22;31563;51.744;8.252;2024-03-29T01:54:31;17.90;50.20
45843;DHT22;31563;51.744;8.252;2024-03-29T01:56:58;17.80;50.20
45843;DHT22;31563;51.744;8.252;2024-03-29T01:59:26;17.80;50.20
45843;DHT22;31563;51.744;8.252;2024-03-29T02:01:56;17.80;50.30
45843;DHT22;31563;51.744;8.252;2024-03-29T02:04:24;17.80;50.40
45843;DHT22;31563;51.744;8.252;2024-03-29T02:06:51;17.80;51.00
45843;DHT22;31563;51.744;8.252;2024-03-29T02:09:18;17.80;50.50
45843;DHT22;31563;51.744;8.252;2024-03-29T02:11:45;17.70;50.40
45843;DHT22;31563;51.744;8.252;2024-03-29T02:14:12;17.70;50.40
45843;DHT22;31563;51.744;8.252;2024-03-29T02:16:39;17.70;50.50
45843;DHT22;31563;51.744;8.252;2024-03-29T02:19:09;17.70;50.50
45843;DHT22;31563;51.744;8.252;2024-03-29T02:21:39;17.70;50.50
45843;DHT22;31563;51.744;8.252;2024-03-29T02:24:10;17.60;50.50
45843;DHT22;31563;51.744;8.252;2024-03-29T02:26:39;17.70;50.60
45843;DHT22;31563;51.744;8.252;2024-03-29T02:29:07;17.70;50.60
45843;DHT22;31563;51.744;8.252;2024-03-29T02:31:35;17.70;50.60
45843;DHT22;31563;51.744;8.252;2024-03-29T02:34:02;17.70;50.40
45843;DHT22;31563;51.744;8.252;2024-03-29T02:36:29;17.80;50.40
45843;DHT22;31563;51.744;8.252;2024-03-29T02:38:56;17.70;50.30
45843;DHT22;31563;51.744;8.252;2024-03-29T02:41:24;17.80;50.30
45843;DHT22;31563;51.744;8.252;2024-03-29T02:43:52;17.70;50.30
45843;DHT22;31563;51.744;8.252;2024-03-29T02:46:20;17.70;50.30
45843;DHT22;31563;51.744;8.252;2024-03-29T02:48:47;17.80;50.30
45843;DHT22;31563;51.744;8.252;2024-03-29T02:51:13;17.70;50.30
45843;DHT22;31563;51.744;8.252;2024-03-29T02:53:40;17.70;50.30
45843;DHT22;31563;51.744;8.252;2024-03-29T02:56:07;17.80;50.30
45843;DHT22;31563;51.744;8.252;2024-03-29T02:58:35;17.80;50.30
45843;DHT22;31563;51.744;8.252;2024-03-29T03:01:06;17.80;50.20
45843;DHT22;31563;51.744;8.252;2024-03-29T03:03:33;17.80;50.20
45843;DHT22;31563;51.744;8.252;2024-03-29T03:05:59;17.80;50.20
45843;DHT22;31563;51.744;8.252;2024-03-29T03:08:26;17.80;50.20
45843;DHT22;31563;51.744;8.252;2024-03-29T03:11:10;17.70;50.10
45843;DHT22;31563;51.744;8.252;2024-03-29T03:13:39;17.80;50.20
45843;DHT22;31563;51.744;8.252;2024-03-29T03:16:06;17.80;50.20
45843;DHT22;31563;51.744;8.252;2024-03-29T03:18:32;17.80;50.20
45843;DHT22;31563;51.744;8.252;2024-03-29T03:21:00;17.70;50.10
45843;DHT22;31563;51.744;8.252;2024-03-29T03:23:26;17.70;50.20
45843;DHT22;31563;51.744;8.252;2024-03-29T03:25:57;17.70;50.20
45843;DHT22;31563;51.744;8.252;2024-03-29T03:28:22;17.70;50.30
45843;DHT22;31563;51.744;8.252;2024-03-29T03:30:52;17.70;50.30
45843;DHT22;31563;51.744;8.252;2024-03-29T03:33:18;17.70;50.30
45843;DHT22;31563;51.744;8.252;2024-03-29T03:35:45;17.70;50.30
45843;DHT22;31563;51.744;8.252;2024-03-29T03:38:12;17.70;50.30
45843;DHT22;31563;51.744;8.252;2024-03-29T03:40:39;17.70;50.40
45843;DHT22;31563;51.744;8.252;2024-03-29T03:43:06;17.60;50.30
45843;DHT22;31563;51.744;8.252;2024-03-29T03:45:37;17.70;50.40
45843;DHT22;31563;51.744;8.252;2024-03-29T03:48:06;17.70;50.90
45843;DHT22;31563;51.744;8.252;2024-03-29T03:50:34;17.70;50.20
45843;DHT22;31563;51.744;8.252;2024-03-29T03:53:00;17.80;50.20
45843;DHT22;31563;51.744;8.252;2024-03-29T03:55:27;17.70;50.10
45843;DHT22;31563;51.744;8.252;2024-03-29T03:57:54;17.70;50.20
45843;DHT22;31563;51.744;8.252;2024-03-29T04:00:22;17.70;50.20
45843;DHT22;31563;51.744;8.252;2024-03-29T04:02:48;17.70;50.30
45843;DHT22;31563;51.744;8.252;2024-03-29T04:05:17;17.60;50.30
45843;DHT22;31563;51.744;8.252;2024-03-29T04:07:44;17.70;50.30
45843;DHT22;31563;51.744;8.252;2024-03-29T04:10:11;17.60;50.40
45843;DHT22;31563;51.744;8.252;2024-03-29T04:12:37;17.70;50.50
45843;DHT22;31563;51.744;8.252;2024-03-29T04:15:05;17.70;50.40
45843;DHT22;31563;51.744;8.252;2024-03-29T04:17:32;17.70;50.30
45843;DHT22;31563;51.744;8.252;2024-03-29T04:19:59;17.70;50.30
45843;DHT22;31563;51.744;8.252;2024-03-29T04:22:27;17.70;50.20
45843;DHT22;31563;51.744;8.252;2024-03-29T04:24:54;17.70;50.90
45843;DHT22;31563;51.744;8.252;2024-03-29T04:27:20;17.70;50.30
45843;DHT22;31563;51.744;8.252;2024-03-29T04:29:51;17.70;50.40
45843;DHT22;31563;51.744;8.252;2024-03-29T04:32:17;17.70;50.40
45843;DHT22;31563;51.744;8.252;2024-03-29T04:34:46;17.60;50.40
45843;DHT22;31563;51.744;8.252;2024-03-29T04:37:13;17.60;50.50
45843;DHT22;31563;51.744;8.252;2024-03-29T04:39:42;17.60;50.50
45843;DHT22;31563;51.744;8.252;2024-03-29T04:42:09;17.60;50.50
45843;DHT22;31563;51.744;8.252;2024-03-29T04:44:36;17.60;50.60
45843;DHT22;31563;51.744;8.252;2024-03-29T04:47:03;17.60;51.30
45843;DHT22;31563;51.744;8.252;2024-03-29T04:49:30;17.40;49.20
45843;DHT22;31563;51.744;8.252;2024-03-29T04:52:00;17.40;50.20
45843;DHT22;31563;51.744;8.252;2024-03-29T04:54:27;17.40;51.00
45843;DHT22;31563;51.744;8.252;2024-03-29T04:56:56;17.40;50.90
45843;DHT22;31563;51.744;8.252;2024-03-29T04:59:23;17.40;51.00
45843;DHT22;31563;51.744;8.252;2024-03-29T05:01:50;17.40;50.80
45843;DHT22;31563;51.744;8.252;2024-03-29T05:04:19;17.50;50.70
45843;DHT22;31563;51.744;8.252;2024-03-29T05:06:51;17.60;50.60
45843;DHT22;31563;51.744;8.252;2024-03-29T05:09:19;17.70;50.30
45843;DHT22;31563;51.744;8.252;2024-03-29T05:11:46;17.90;50.00
45843;DHT22;31563;51.744;8.252;2024-03-29T05:14:15;18.00;49.70
45843;DHT22;31563;51.744;8.252;2024-03-29T05:16:44;18.20;50.00
45843;DHT22;31563;51.744;8.252;2024-03-29T05:19:11;18.20;49.40
45843;DHT22;31563;51.744;8.252;2024-03-29T05:21:38;18.30;49.30
45843;DHT22;31563;51.744;8.252;2024-03-29T05:24:06;18.30;49.20
45843;DHT22;31563;51.744;8.252;2024-03-29T05:26:33;18.40;49.10
45843;DHT22;31563;51.744;8.252;2024-03-29T05:29:00;18.40;49.00
45843;DHT22;31563;51.744;8.252;2024-03-29T05:31:31;18.40;49.00
45843;DHT22;31563;51.744;8.252;2024-03-29T05:33:58;18.40;49.00
45843;DHT22;31563;51.744;8.252;2024-03-29T05:36:26;18.50;48.90
45843;DHT22;31563;51.744;8.252;2024-03-29T05:38:53;18.50;48.80
45843;DHT22;31563;51.744;8.252;2024-03-29T05:41:20;18.50;48.80
45843;DHT22;31563;51.744;8.252;2024-03-29T05:43:47;18.60;49.50
45843;DHT22;31563;51.744;8.252;2024-03-29T05:46:15;18.60;48.80
45843;DHT22;31563;51.744;8.252;2024-03-29T05:48:44;18.60;48.80
45843;DHT22;31563;51.744;8.252;2024-03-29T05:51:11;18.60;48.80
45843;DHT22;31563;51.744;8.252;2024-03-29T05:53:38;18.60;48.80
45843;DHT22;31563;51.744;8.252;2024-03-29T05:56:06;18.60;48.70
45843;DHT22;31563;51.744;8.252;2024-03-29T05:58:33;18.70;48.80
45843;DHT22;31563;51.744;8.252;2024-03-29T06:01:00;18.70;48.70
45843;DHT22;31563;51.744;8.252;2024-03-29T06:03:27;18.70;48.70
45843;DHT22;31563;51.744;8.252;2024-03-29T06:05:56;18.70;48.70
45843;DHT22;31563;51.744;8.252;2024-03-29T06:08:24;18.70;48.60
45843;DHT22;31563;51.744;8.252;2024-03-29T06:10:53;18.80;48.60
45843;DHT22;31563;51.744;8.252;2024-03-29T06:13:20;18.80;48.60
45843;DHT22;31563;51.744;8.252;2024-03-29T06:16:04;18.80;48.70
45843;DHT22;31563;51.744;8.252;2024-03-29T06:18:49;18.80;48.60
45843;DHT22;31563;51.744;8.252;2024-03-29T06:21:17;18.90;48.60
45843;DHT22;31563;51.744;8.252;2024-03-29T06:23:44;18.90;48.60
45843;DHT22;31563;51.744;8.252;2024-03-29T06:26:11;18.80;48.60
45843;DHT22;31563;51.744;8.252;2024-03-29T06:28:38;18.80;48.60
45843;DHT22;31563;51.744;8.252;2024-03-29T06:31:05;18.80;48.70
45843;DHT22;31563;51.744;8.252;2024-03-29T06:33:32;18.90;48.80
45843;DHT22;31563;51.744;8.252;2024-03-29T06:35:59;18.90;48.60
45843;DHT22;31563;51.744;8.252;2024-03-29T06:38:28;19.00;48.60
45843;DHT22;31563;51.744;8.252;2024-03-29T06:40:55;19.10;48.50
45843;DHT22;31563;51.744;8.252;2024-03-29T06:43:22;19.10;48.40
45843;DHT22;31563;51.744;8.252;2024-03-29T06:45:49;19.10;48.40
45843;DHT22;31563;51.744;8.252;2024-03-29T06:48:16;19.10;48.40
45843;DHT22;31563;51.744;8.252;2024-03-29T06:50:43;19.00;48.50
45843;DHT22;31563;51.744;8.252;2024-03-29T06:53:10;19.00;49.20
45843;DHT22;31563;51.744;8.252;2024-03-29T06:55:38;19.10;48.60
45843;DHT22;31563;51.744;8.252;2024-03-29T06:58:05;19.20;48.50
45843;DHT22;31563;51.744;8.252;2024-03-29T07:00:32;19.20;48.30
45843;DHT22;31563;51.744;8.252;2024-03-29T07:03:00;19.30;48.20
45843;DHT22;31563;51.744;8.252;2024-03-29T07:05:27;19.30;48.80
45843;DHT22;31563;51.744;8.252;2024-03-29T07:07:54;19.40;48.10
45843;DHT22;31563;51.744;8.252;2024-03-29T07:10:21;19.40;48.10
45843;DHT22;31563;51.744;8.252;2024-03-29T07:12:50;19.40;48.10
45843;DHT22;31563;51.744;8.252;2024-03-29T07:15:17;19.40;48.10
45843;DHT22;31563;51.744;8.252;2024-03-29T07:17:44;19.50;48.10
45843;DHT22;31563;51.744;8.252;2024-03-29T07:20:12;19.60;47.90
45843;DHT22;31563;51.744;8.252;2024-03-29T07:22:39;19.60;48.50
45843;DHT22;31563;51.744;8.252;2024-03-29T07:25:06;19.70;48.50
45843;DHT22;31563;51.744;8.252;2024-03-29T07:27:34;19.70;47.60
45843;DHT22;31563;51.744;8.252;2024-03-29T07:30:03;19.80;47.60
45843;DHT22;31563;51.744;8.252;2024-03-29T07:32:30;19.80;47.60
45843;DHT22;31563;51.744;8.252;2024-03-29T07:34:58;19.70;48.00
45843;DHT22;31563;51.744;8.252;2024-03-29T07:37:25;19.80;49.10
45843;DHT22;31563;51.744;8.252;2024-03-29T07:39:52;19.90;49.40
45843;DHT22;31563;51.744;8.252;2024-03-29T07:42:19;19.90;49.30
45843;DHT22;31563;51.744;8.252;2024-03-29T07:44:46;19.90;49.20
45843;DHT22;31563;51.744;8.252;2024-03-29T07:47:14;20.00;49.90
45843;DHT22;31563;51.744;8.252;2024-03-29T07:49:42;20.00;49.00
45843;DHT22;31563;51.744;8.252;2024-03-29T07:52:09;20.00;49.10
45843;DHT22;31563;51.744;8.252;2024-03-29T07:54:36;20.00;49.00
45843;DHT22;31563;51.744;8.252;2024-03-29T07:57:04;20.20;48.80
45843;DHT22;31563;51.744;8.252;2024-03-29T07:59:34;20.20;48.60
45843;DHT22;31563;51.744;8.252;2024-03-29T08:02:01;20.10;48.70
45843;DHT22;31563;51.744;8.252;2024-03-29T08:04:30;20.10;48.90
45843;DHT22;31563;51.744;8.252;2024-03-29T08:06:57;20.00;49.10
45843;DHT22;31563;51.744;8.252;2024-03-29T08:09:24;19.90;49.10
45843;DHT22;31563;51.744;8.252;2024-03-29T08:11:51;19.90;49.20
45843;DHT22;31563;51.744;8.252;2024-03-29T08:14:18;19.90;49.20
45843;DHT22;31563;51.744;8.252;2024-03-29T08:16:45;19.90;49.20
45843;DHT22;31563;51.744;8.252;2024-03-29T08:19:12;20.00;49.20
45843;DHT22;31563;51.744;8.252;2024-03-29T08:21:40;20.10;49.00
45843;DHT22;31563;51.744;8.252;2024-03-29T08:24:07;20.30;48.70
45843;DHT22;31563;51.744;8.252;2024-03-29T08:26:34;20.40;48.40
45843;DHT22;31563;51.744;8.252;2024-03-29T08:29:02;20.40;48.30
45843;DHT22;31563;51.744;8.252;2024-03-29T08:31:29;20.30;48.30
45843;DHT22;31563;51.744;8.252;2024-03-29T08:33:56;20.30;48.50
45843;DHT22;31563;51.744;8.252;2024-03-29T08:36:24;20.30;48.40
45843;DHT22;31563;51.744;8.252;2024-03-29T08:38:52;20.40;48.90
45843;DHT22;31563;51.744;8.252;2024-03-29T08:41:18;20.60;48.20
45843;DHT22;31563;51.744;8.252;2024-03-29T08:43:45;20.50;48.20
45843;DHT22;31563;51.744;8.252;2024-03-29T08:46:12;20.60;48.20
45843;DHT22;31563;51.744;8.252;2024-03-29T08:48:39;20.60;48.00
45843;DHT22;31563;51.744;8.252;2024-03-29T08:51:08;20.50;48.10
45843;DHT22;31563;51.744;8.252;2024-03-29T08:53:37;20.50;49.00
45843;DHT22;31563;51.744;8.252;2024-03-29T08:56:06;20.40;48.50
45843;DHT22;31563;51.744;8.252;2024-03-29T08:58:33;20.40;48.70
45843;DHT22;31563;51.744;8.252;2024-03-29T09:01:00;20.40;48.60
45843;DHT22;31563;51.744;8.252;2024-03-29T09:03:30;20.60;48.40
45843;DHT22;31563;51.744;8.252;2024-03-29T09:05:57;20.90;47.90
45843;DHT22;31563;51.744;8.252;2024-03-29T09:08:24;21.30;47.20
45843;DHT22;31563;51.744;8.252;2024-03-29T09:10:51;21.60;47.30
45843;DHT22;31563;51.744;8.252;2024-03-29T09:13:19;22.00;46.30
45843;DHT22;31563;51.744;8.252;2024-03-29T09:15:47;22.40;45.50
45843;DHT22;31563;51.744;8.252;2024-03-29T09:18:14;22.70;45.20
45843;DHT22;31563;51.744;8.252;2024-03-29T09:20:56;22.70;45.80
45843;DHT22;31563;51.744;8.252;2024-03-29T09:23:25;22.80;46.10
45843;DHT22;31563;51.744;8.252;2024-03-29T09:25:53;23.00;45.20
45843;DHT22;31563;51.744;8.252;2024-03-29T09:28:23;22.80;45.30
45843;DHT22;31563;51.744;8.252;2024-03-29T09:30:50;22.70;45.70
45843;DHT22;31563;51.744;8.252;2024-03-29T09:33:17;22.50;45.90
45843;DHT22;31563;51.744;8.252;2024-03-29T09:35:44;22.50;46.30
45843;DHT22;31563;51.744;8.252;2024-03-29T09:38:11;22.50;46.30
45843;DHT22;31563;51.744;8.252;2024-03-29T09:40:38;22.70;46.30
45843;DHT22;31563;51.744;8.252;2024-03-29T09:43:07;23.30;45.50
45843;DHT22;31563;51.744;8.252;2024-03-29T09:45:37;23.20;44.80
45843;DHT22;31563;51.744;8.252;2024-03-29T09:48:05;23.10;45.20
45843;DHT22;31563;51.744;8.252;2024-03-29T09:50:34;23.40;45.20
45843;DHT22;31563;51.744;8.252;2024-03-29T09:53:02;23.60;44.50
45843;DHT22;31563;51.744;8.252;2024-03-29T09:55:29;23.50;44.50
45843;DHT22;31563;51.744;8.252;2024-03-29T09:57:57;23.30;44.70
45843;DHT22;31563;51.744;8.252;2024-03-29T10:00:27;23.60;44.60
45843;DHT22;31563;51.744;8.252;2024-03-29T10:02:56;23.90;44.00
45843;DHT22;31563;51.744;8.252;2024-03-29T10:05:24;23.90;44.30
45843;DHT22;31563;51.744;8.252;2024-03-29T10:07:53;23.90;43.80
45843;DHT22;31563;51.744;8.252;2024-03-29T10:10:20;23.90;43.70
45843;DHT22;31563;51.744;8.252;2024-03-29T10:12:47;23.90;44.50
45843;DHT22;31563;51.744;8.252;2024-03-29T10:15:14;23.90;43.90
45843;DHT22;31563;51.744;8.252;2024-03-29T10:17:45;24.00;44.40
45843;DHT22;31563;51.744;8.252;2024-03-29T10:20:17;24.00;44.40
45843;DHT22;31563;51.744;8.252;2024-03-29T10:22:45;24.00;44.00
45843;DHT22;31563;51.744;8.252;2024-03-29T10:25:13;24.10;43.60
45843;DHT22;31563;51.744;8.252;2024-03-29T10:27:40;24.50;43.50
45843;DHT22;31563;51.744;8.252;2024-03-29T10:30:08;24.80;42.70
45843;DHT22;31563;51.744;8.252;2024-03-29T10:32:37;24.90;42.60
45843;DHT22;31563;51.744;8.252;2024-03-29T10:35:06;25.30;42.30
45843;DHT22;31563;51.744;8.252;2024-03-29T10:37:36;25.30;42.00
45843;DHT22;31563;51.744;8.252;2024-03-29T10:40:07;25.50;42.20
45843;DHT22;31563;51.744;8.252;2024-03-29T10:42:36;25.90;41.90
45843;DHT22;31563;51.744;8.252;2024-03-29T10:45:05;26.00;41.10
45843;DHT22;31563;51.744;8.252;2024-03-29T10:47:33;25.80;41.40
45843;DHT22;31563;51.744;8.252;2024-03-29T10:50:01;25.40;41.90
45843;DHT22;31563;51.744;8.252;2024-03-29T10:52:31;24.90;42.90
45843;DHT22;31563;51.744;8.252;2024-03-29T10:54:59;24.80;44.00
45843;DHT22;31563;51.744;8.252;2024-03-29T10:57:27;24.90;43.90
45843;DHT22;31563;51.744;8.252;2024-03-29T11:00:02;24.70;43.80
45843;DHT22;31563;51.744;8.252;2024-03-29T11:02:42;24.70;44.50
45843;DHT22;31563;51.744;8.252;2024-03-29T11:05:15;24.70;44.60
45843;DHT22;31563;51.744;8.252;2024-03-29T11:07:43;24.70;44.80
45843;DHT22;31563;51.744;8.252;2024-03-29T11:10:15;24.60;45.20
45843;DHT22;31563;51.744;8.252;2024-03-29T11:12:58;24.80;45.20
45843;DHT22;31563;51.744;8.252;2024-03-29T11:15:29;24.90;44.80
45843;DHT22;31563;51.744;8.252;2024-03-29T11:17:57;24.90;44.40
45843;DHT22;31563;51.744;8.252;2024-03-29T11:20:25;24.70;45.00
45843;DHT22;31563;51.744;8.252;2024-03-29T11:23:02;24.70;45.30
45843;DHT22;31563;51.744;8.252;2024-03-29T11:25:43;25.00;45.10
45843;DHT22;31563;51.744;8.252;2024-03-29T11:28:12;25.60;44.30
45843;DHT22;31563;51.744;8.252;2024-03-29T11:30:45;26.50;43.40
45843;DHT22;31563;51.744;8.252;2024-03-29T11:33:30;27.70;41.70
45843;DHT22;31563;51.744;8.252;2024-03-29T11:35:57;28.50;40.80
45843;DHT22;31563;51.744;8.252;2024-03-29T11:38:32;30.40;39.40
45843;DHT22;31563;51.744;8.252;2024-03-29T11:41:06;31.50;37.50
45843;DHT22;31563;51.744;8.252;2024-03-29T11:43:34;31.90;37.40
45843;DHT22;31563;51.744;8.252;2024-03-29T11:46:02;31.70;36.80
45843;DHT22;31563;51.744;8.252;2024-03-29T11:48:30;31.00;37.10
45843;DHT22;31563;51.744;8.252;2024-03-29T11:50:58;30.10;38.60
45843;DHT22;31563;51.744;8.252;2024-03-29T11:53:26;30.30;38.10
45843;DHT22;31563;51.744;8.252;2024-03-29T11:55:55;30.80;37.10
45843;DHT22;31563;51.744;8.252;2024-03-29T11:58:24;30.80;37.20
45843;DHT22;31563;51.744;8.252;2024-03-29T12:00:52;30.80;37.00
45843;DHT22;31563;51.744;8.252;2024-03-29T12:03:21;30.80;37.30
45843;DHT22;31563;51.744;8.252;2024-03-29T12:05:50;29.90;38.10
45843;DHT22;31563;51.744;8.252;2024-03-29T12:08:17;28.90;38.90
45843;DHT22;31563;51.744;8.252;2024-03-29T12:10:45;28.40;39.70
45843;DHT22;31563;51.744;8.252;2024-03-29T12:13:15;27.90;40.10
45843;DHT22;31563;51.744;8.252;2024-03-29T12:15:44;27.60;40.80
45843;DHT22;31563;51.744;8.252;2024-03-29T12:18:11;27.30;41.50
45843;DHT22;31563;51.744;8.252;2024-03-29T12:20:39;26.90;41.50
45843;DHT22;31563;51.744;8.252;2024-03-29T12:23:07;26.60;41.80
45843;DHT22;31563;51.744;8.252;2024-03-29T12:25:36;26.60;42.10
45843;DHT22;31563;51.744;8.252;2024-03-29T12:28:04;27.10;41.60
45843;DHT22;31563;51.744;8.252;2024-03-29T12:30:33;27.60;40.50
45843;DHT22;31563;51.744;8.252;2024-03-29T12:33:02;27.20;40.50
45843;DHT22;31563;51.744;8.252;2024-03-29T12:35:30;26.90;41.50
45843;DHT22;31563;51.744;8.252;2024-03-29T12:37:58;26.60;42.00
45843;DHT22;31563;51.744;8.252;2024-03-29T12:40:26;26.50;42.30
45843;DHT22;31563;51.744;8.252;2024-03-29T12:42:56;26.50;43.30
45843;DHT22;31563;51.744;8.252;2024-03-29T12:45:24;26.90;42.90
45843;DHT22;31563;51.744;8.252;2024-03-29T12:47:52;27.10;42.60
45843;DHT22;31563;51.744;8.252;2024-03-29T12:50:25;27.90;41.60
45843;DHT22;31563;51.744;8.252;2024-03-29T12:52:54;28.40;40.80
45843;DHT22;31563;51.744;8.252;2024-03-29T12:55:22;29.00;40.80
45843;DHT22;31563;51.744;8.252;2024-03-29T12:57:50;29.50;39.80
45843;DHT22;31563;51.744;8.252;2024-03-29T13:00:20;29.50;39.60
45843;DHT22;31563;51.744;8.252;2024-03-29T13:02:47;28.70;40.20
45843;DHT22;31563;51.744;8.252;2024-03-29T13:05:14;28.00;40.90
45843;DHT22;31563;51.744;8.252;2024-03-29T13:07:43;27.50;42.60
45843;DHT22;31563;51.744;8.252;2024-03-29T13:10:10;27.30;42.50
45843;DHT22;31563;51.744;8.252;2024-03-29T13:12:41;26.90;42.80
45843;DHT22;31563;51.744;8.252;2024-03-29T13:15:17;26.70;43.30
45843;DHT22;31563;51.744;8.252;2024-03-29T13:17:46;26.50;43.50
45843;DHT22;31563;51.744;8.252;2024-03-29T13:20:14;26.10;43.90
45843;DHT22;31563;51.744;8.252;2024-03-29T13:22:43;25.70;44.40
45843;DHT22;31563;51.744;8.252;2024-03-29T13:25:12;25.60;44.60
45843;DHT22;31563;51.744;8.252;2024-03-29T13:27:40;25.50;44.80
45843;DHT22;31563;51.744;8.252;2024-03-29T13:30:08;25.60;44.60
45843;DHT22;31563;51.744;8.252;2024-03-29T13:32:36;25.90;44.10
45843;DHT22;31563;51.744;8.252;2024-03-29T13:35:03;25.80;43.80
45843;DHT22;31563;51.744;8.252;2024-03-29T13:37:31;25.60;43.90
45843;DHT22;31563;51.744;8.252;2024-03-29T13:40:00;25.50;44.10
45843;DHT22;31563;51.744;8.252;2024-03-29T13:42:29;25.40;44.50
45843;DHT22;31563;51.744;8.252;2024-03-29T13:44:57;25.40;44.20
45843;DHT22;31563;51.744;8.252;2024-03-29T13:47:24;25.30;44.70
45843;DHT22;31563;51.744;8.252;2024-03-29T13:49:51;25.30;44.70
45843;DHT22;31563;51.744;8.252;2024-03-29T13:52:19;25.30;45.30
45843;DHT22;31563;51.744;8.252;2024-03-29T13:54:47;25.40;45.20
45843;DHT22;31563;51.744;8.252;2024-03-29T13:57:16;25.40;44.40
45843;DHT22;31563;51.744;8.252;2024-03-29T13:59:44;25.40;44.40
45843;DHT22;31563;51.744;8.252;2024-03-29T14:02:12;25.60;44.30
45843;DHT22;31563;51.744;8.252;2024-03-29T14:04:40;25.70;43.70
45843;DHT22;31563;51.744;8.252;2024-03-29T14:07:07;25.90;43.50
45843;DHT22;31563;51.744;8.252;2024-03-29T14:09:37;26.60;43.40
45843;DHT22;31563;51.744;8.252;2024-03-29T14:12:04;28.10;41.50
45843;DHT22;31563;51.744;8.252;2024-03-29T14:14:33;28.90;40.30
45843;DHT22;31563;51.744;8.252;2024-03-29T14:17:01;28.80;39.10
45843;DHT22;31563;51.744;8.252;2024-03-29T14:19:30;28.70;39.60
45843;DHT22;31563;51.744;8.252;2024-03-29T14:21:57;28.00;39.70
45843;DHT22;31563;51.744;8.252;2024-03-29T14:24:24;27.30;40.40
45843;DHT22;31563;51.744;8.252;2024-03-29T14:26:52;27.40;41.40
45843;DHT22;31563;51.744;8.252;2024-03-29T14:29:20;27.50;41.00
45843;DHT22;31563;51.744;8.252;2024-03-29T14:31:48;27.20;42.60
45843;DHT22;31563;51.744;8.252;2024-03-29T14:34:16;27.20;42.90
45843;DHT22;31563;51.744;8.252;2024-03-29T14:36:43;27.10;42.70
45843;DHT22;31563;51.744;8.252;2024-03-29T14:39:11;27.50;42.70
45843;DHT22;31563;51.744;8.252;2024-03-29T14:41:39;28.40;42.70
45843;DHT22;31563;51.744;8.252;2024-03-29T14:44:08;29.40;40.70
45843;DHT22;31563;51.744;8.252;2024-03-29T14:46:35;28.90;41.20
45843;DHT22;31563;51.744;8.252;2024-03-29T14:49:04;27.70;40.90
45843;DHT22;31563;51.744;8.252;2024-03-29T14:51:32;27.40;42.90
45843;DHT22;31563;51.744;8.252;2024-03-29T14:54:00;27.50;42.80
45843;DHT22;31563;51.744;8.252;2024-03-29T14:56:28;27.30;43.30
45843;DHT22;31563;51.744;8.252;2024-03-29T14:58:56;27.00;43.30
45843;DHT22;31563;51.744;8.252;2024-03-29T15:01:23;26.90;43.40
45843;DHT22;31563;51.744;8.252;2024-03-29T15:03:51;27.30;44.00
45843;DHT22;31563;51.744;8.252;2024-03-29T15:06:20;28.00;43.60
45843;DHT22;31563;51.744;8.252;2024-03-29T15:08:48;27.90;43.40
45843;DHT22;31563;51.744;8.252;2024-03-29T15:11:16;27.70;43.20
45843;DHT22;31563;51.744;8.252;2024-03-29T15:13:43;29.00;42.40
45843;DHT22;31563;51.744;8.252;2024-03-29T15:16:10;29.70;40.80
45843;DHT22;31563;51.744;8.252;2024-03-29T15:18:37;28.70;41.20
45843;DHT22;31563;51.744;8.252;2024-03-29T15:21:04;27.90;42.80
45843;DHT22;31563;51.744;8.252;2024-03-29T15:23:35;27.70;44.30
45843;DHT22;31563;51.744;8.252;2024-03-29T15:26:02;28.70;44.00
45843;DHT22;31563;51.744;8.252;2024-03-29T15:28:30;28.90;42.90
45843;DHT22;31563;51.744;8.252;2024-03-29T15:31:17;29.20;43.10
45843;DHT22;31563;51.744;8.252;2024-03-29T15:33:45;28.70;43.40
45843;DHT22;31563;51.744;8.252;2024-03-29T15:36:13;28.30;44.40